KCVS/CVS METAR and TAF weather

Enter ICAO airport designator
Station Type Date Time Source
KCVS METAR 2019/10/16 19:58 UTC NOAA

KCVS 161958Z AUTO 19013KT 10SM CLR 20/M04 A3023 RMK AO2 SLP208 T02011036 $


Station Type Date Time Source
KCVS Decoded METAR 2019/10/16 19:58 UTC NOAA

Cannon Air Force Base / Clovis, NM, United States (KCVS) 34-23N 103-19W
Oct 16, 2019 - 03:58 PM EDT / 2019.10.16 1958 UTC
Wind: from the S (190 degrees) at 15 MPH (13 KT):0
Visibility: 10 mile(s):0
Sky conditions: clear
Temperature: 68.2 F (20.1 C)
Dew Point: 25.5 F (-3.6 C)
Relative Humidity: 19%
Pressure (altimeter): 30.23 in. Hg (1023 hPa)
ob: KCVS 161958Z AUTO 19013KT 10SM CLR 20/M04 A3023 RMK AO2 SLP208 T02011036
cycle: 20

Station Type Date Time Source
KCVS TAF 2019/10/16 18:03 UTC NOAA

TAF KCVS 161800Z 1618/1724 22012G20KT 9999 SKC QNH3016INS
BECMG 1700/1701 23010KT 9999 SKC QNH3007INS
BECMG 1715/1716 24012G22KT 9999 SKC QNH2992INS
BECMG 1722/1723 22009KT 9999 FEW200 QNH2990INS TX23/1623Z TN06/1712Z

Example: see airport list